Gatlinburg, TN

9:31 AM EDT on October 01, 2016 (GMT -0400)
Gatlinburg | | Change Station

Elev 1476 ft 35.71 °N, 83.51 °W | Updated 39 seconds ago

Partly Cloudy
Partly Cloudy
50.4 °F
Feels Like 50.4 °F
N
0.0
Wind Variable Wind from South
Gusts 0.0 mph

Today
High -- | Low -- °F
--% Chance of Precip.
Yesterday
High -- | Low -- °F
Precip. -- in
Pressure 30.10 in
Visibility 10.0 miles
Clouds Few 25000 ft
Dew Point 50 °F
Humidity 98%
Rainfall 0.00 in
Snow Depth Not available.
7:29 AM 7:17 PM
New Moon, 0% visible
METAR KTYS 011253Z 00000KT 10SM FEW250 12/09 A3011 RMK AO2 SLP191 T01220089
Pressure 30.10 in
Visibility 10.0 miles
Clouds Few 25000 ft
Dew Point 50 °F
Humidity 98%
Rainfall 0.00 in
Snow Depth Not available.
7:29 AM 7:17 PM
New Moon, 0% visible
METAR KTYS 011253Z 00000KT 10SM FEW250 12/09 A3011 RMK AO2 SLP191 T01220089

10-Day Weather Forecast

Almanac

Astronomy

Oct. 01, 2016 Rise Set
Actual Time
Civil Twilight
Nautical Twilight
Astronomical Twilight
Moon
Length of Visible Light
Length of Day
Tomorrow will be .
, % of the Moon is Illuminated

Today's Extremes

State Highs State Lows

Community

WunderPhotos

Upload Photos

1,942,929 photos uploaded!

WunderBlog® & News

Nearby

Air Quality

  Air Quality AQ Index Pollutant
Not available.

Snow Depth

Station Depth Elevation

Earthquake Activity

City Distance Mag. Time & Date
Minimum magnitude displayed is 2.5.

Coastal Water Temperatures

Place Temperature

Stations

Nearby Weather Stations

Station Location Temp. Windchill Dew Point Humidity Wind Precip. Elev Updated Type
                   

Watches & Warnings

There are currently no watches in effect.